Time;durP1;ratioP1;P1;durP2;ratioP2;P2;SDS_P1;SDS_P2;PMS_P1;PMS_P2;Temp;Humidity;BMP_temperature;BMP_pressure;BME280_temperature;BME280_humidity;BME280_pressure;Samples;Min_cycle;Max_cycle;Signal;HPM_P1;HPM_P2
2023/12/01 00:00:29;;;;;;;8.63;5.55;;;;;;;14.88;49.19;100582.75;5023729;28;20041;-39
2023/12/01 00:02:55;;;;;;;7.20;5.53;;;;;;;14.88;49.21;100584.56;5024388;28;20299;-39
2023/12/01 00:05:22;;;;;;;7.75;5.43;;;;;;;14.87;49.14;100588.19;5028708;28;20149;-39
2023/12/01 00:07:49;;;;;;;8.55;6.32;;;;;;;14.88;48.85;100593.41;5027917;28;20096;-39
2023/12/01 00:10:15;;;;;;;8.77;6.03;;;;;;;14.89;49.77;100586.25;5030089;28;20038;-39
2023/12/01 00:12:42;;;;;;;8.75;6.38;;;;;;;14.96;49.05;100592.72;5029417;28;20049;-38
2023/12/01 00:15:09;;;;;;;8.50;5.25;;;;;;;15.08;48.77;100596.09;5030809;28;20057;-39
2023/12/01 00:17:35;;;;;;;6.38;4.72;;;;;;;15.19;48.54;100594.09;5028662;28;20129;-39
2023/12/01 00:20:02;;;;;;;7.95;5.50;;;;;;;15.31;49.38;100595.63;5031287;28;20049;-39
2023/12/01 00:22:29;;;;;;;8.23;5.82;;;;;;;15.44;48.92;100594.53;5023784;28;20071;-39
2023/12/01 00:24:56;;;;;;;9.00;5.90;;;;;;;15.55;48.54;100591.66;5026547;28;20126;-38
2023/12/01 00:27:22;;;;;;;6.75;5.07;;;;;;;15.66;48.11;100596.88;5027904;28;20252;-39
2023/12/01 00:29:49;;;;;;;7.10;5.15;;;;;;;15.78;47.86;100594.91;5024023;28;20046;-39
2023/12/01 00:32:15;;;;;;;5.75;5.00;;;;;;;15.87;47.51;100594.00;5025380;28;20046;-40
2023/12/01 00:34:42;;;;;;;7.50;5.40;;;;;;;15.97;47.98;100589.50;5027222;28;20121;-39
2023/12/01 00:37:09;;;;;;;6.75;5.05;;;;;;;16.08;47.61;100598.28;5025360;28;20042;-39
2023/12/01 00:39:35;;;;;;;6.75;4.90;;;;;;;16.15;47.21;100594.06;5030881;28;20091;-39
2023/12/01 00:42:03;;;;;;;7.07;5.13;;;;;;;16.20;47.59;100589.09;5029152;28;20051;-39
2023/12/01 00:44:30;;;;;;;5.53;4.60;;;;;;;16.22;47.26;100596.00;5027199;28;20437;-39
2023/12/01 00:46:57;;;;;;;7.68;5.50;;;;;;;16.24;47.35;100617.22;5028145;28;20064;-39
2023/12/01 00:49:23;;;;;;;6.47;4.90;;;;;;;16.22;46.92;100614.72;5027315;28;20079;-39
2023/12/01 00:51:50;;;;;;;6.20;4.53;;;;;;;16.22;46.21;100622.72;5026612;28;20371;-39
2023/12/01 00:54:17;;;;;;;6.65;4.82;;;;;;;16.23;46.87;100620.91;5027153;28;20084;-39
2023/12/01 00:56:43;;;;;;;6.53;4.93;;;;;;;16.21;46.80;100622.91;5028275;28;20115;-39
2023/12/01 00:59:12;;;;;;;6.60;4.70;;;;;;;16.20;46.68;100618.50;5027300;28;20121;-39
2023/12/01 01:01:39;;;;;;;6.00;4.82;;;;;;;16.18;46.63;100612.47;5026669;28;20136;-39
2023/12/01 01:04:05;;;;;;;5.47;4.57;;;;;;;16.17;46.32;100621.50;5028622;28;20053;-39
2023/12/01 01:06:34;;;;;;;7.38;5.28;;;;;;;16.15;47.38;100632.31;5027370;28;20049;-39
2023/12/01 01:09:01;;;;;;;6.95;5.28;;;;;;;16.13;46.38;100628.97;5023938;28;20042;-39
2023/12/01 01:11:28;;;;;;;6.45;4.93;;;;;;;16.13;46.67;100628.97;5024123;28;20115;-39
2023/12/01 01:13:55;;;;;;;6.85;4.93;;;;;;;16.12;46.23;100629.09;5026381;28;20057;-39
2023/12/01 01:16:22;;;;;;;6.95;4.68;;;;;;;16.10;46.75;100639.13;5024260;28;20053;-39
2023/12/01 01:18:49;;;;;;;6.07;4.50;;;;;;;16.07;46.89;100634.88;5027037;28;20066;-39
2023/12/01 01:21:16;;;;;;;6.80;4.70;;;;;;;16.03;46.91;100626.31;5022431;28;20050;-39
2023/12/01 01:23:43;;;;;;;6.88;4.43;;;;;;;16.00;46.32;100631.09;5024891;28;20045;-39
2023/12/01 01:26:10;;;;;;;7.13;4.88;;;;;;;15.94;46.28;100635.22;5027938;28;20045;-39
2023/12/01 01:28:36;;;;;;;6.40;4.65;;;;;;;15.89;45.96;100642.84;5030195;28;20502;-39
2023/12/01 01:31:03;;;;;;;6.47;4.90;;;;;;;15.79;45.93;100640.16;5028969;28;20045;-39
2023/12/01 01:33:30;;;;;;;7.18;5.07;;;;;;;15.71;46.25;100653.41;5026777;28;20140;-39
2023/12/01 01:35:57;;;;;;;6.57;4.70;;;;;;;15.62;46.84;100656.06;5026787;28;20418;-39
2023/12/01 01:38:24;;;;;;;6.85;5.22;;;;;;;15.50;47.32;100653.53;5026241;28;20154;-39
2023/12/01 01:40:50;;;;;;;5.50;4.88;;;;;;;15.38;47.19;100651.16;5028585;28;20080;-39
2023/12/01 01:43:22;;;;;;;7.03;5.45;;;;;;;15.29;47.87;100655.53;5025606;28;20050;-39
2023/12/01 01:46:02;;;;;;;6.82;5.25;;;;;;;15.18;48.32;100656.50;5026592;28;20060;-39
2023/12/01 01:48:29;;;;;;;6.78;5.05;;;;;;;15.11;48.29;100658.03;5028701;28;20402;-39
2023/12/01 01:50:56;;;;;;;5.97;4.63;;;;;;;15.06;48.61;100658.44;5024201;28;20045;-39
2023/12/01 01:53:23;;;;;;;6.65;4.53;;;;;;;15.18;48.10;100661.00;5028323;28;20356;-39
2023/12/01 01:55:50;;;;;;;6.15;4.68;;;;;;;15.28;47.38;100660.03;5028180;28;20425;-39
2023/12/01 01:58:17;;;;;;;5.80;4.15;;;;;;;15.41;47.59;100666.91;5027458;28;20106;-39
2023/12/01 02:00:49;;;;;;;5.28;4.30;;;;;;;15.53;48.33;100665.78;5026771;28;20406;-39
2023/12/01 02:03:21;;;;;;;6.72;4.78;;;;;;;15.65;47.87;100658.50;5027202;28;20700;-39
2023/12/01 02:05:48;;;;;;;5.55;4.05;;;;;;;15.74;47.11;100663.81;5026862;28;20061;-39
2023/12/01 02:08:26;;;;;;;5.15;3.78;;;;;;;15.85;47.80;100668.16;5025723;28;20369;-39
2023/12/01 02:10:54;;;;;;;5.95;4.30;;;;;;;15.94;46.62;100661.09;5026273;28;20127;-39
2023/12/01 02:13:21;;;;;;;6.00;4.30;;;;;;;15.99;46.49;100662.34;5028357;28;20428;-39
2023/12/01 02:15:48;;;;;;;5.00;4.13;;;;;;;16.06;46.34;100665.28;5026101;28;20053;-39
2023/12/01 02:18:23;;;;;;;5.05;3.92;;;;;;;16.11;46.61;100667.53;5026588;28;20045;-39
2023/12/01 02:20:54;;;;;;;6.63;5.03;;;;;;;16.14;45.97;100664.56;5028024;28;20974;-39
2023/12/01 02:23:21;;;;;;;6.13;4.00;;;;;;;16.15;46.55;100664.41;5028217;28;20054;-39
2023/12/01 02:25:49;;;;;;;5.15;3.78;;;;;;;16.17;46.18;100659.78;5026918;28;20061;-39
2023/12/01 02:28:16;;;;;;;5.00;3.90;;;;;;;16.18;45.91;100668.63;5027475;28;20668;-39
2023/12/01 02:30:55;;;;;;;5.43;3.92;;;;;;;16.17;46.66;100661.63;5027951;28;20049;-39
2023/12/01 02:33:23;;;;;;;5.45;3.72;;;;;;;16.18;46.71;100673.97;5025623;28;20156;-39
2023/12/01 02:35:53;;;;;;;5.55;4.47;;;;;;;16.18;46.40;100672.16;5027227;28;20349;-39
2023/12/01 02:38:20;;;;;;;5.20;3.83;;;;;;;16.19;46.96;100673.00;5027159;28;20135;-39
2023/12/01 02:40:50;;;;;;;5.43;3.78;;;;;;;16.19;46.32;100673.00;5027583;28;20046;-39
2023/12/01 02:43:19;;;;;;;5.30;3.60;;;;;;;16.18;46.57;100669.47;5025850;28;20051;-39
2023/12/01 02:45:47;;;;;;;4.97;3.42;;;;;;;16.20;46.79;100670.19;5026577;28;20077;-39
2023/12/01 02:48:15;;;;;;;5.90;3.80;;;;;;;16.18;46.15;100671.31;5026300;28;20055;-39
2023/12/01 02:50:41;;;;;;;4.20;3.28;;;;;;;16.19;45.93;100673.81;5026664;28;20099;-39
2023/12/01 02:53:08;;;;;;;4.88;3.97;;;;;;;16.19;46.36;100668.47;5028811;28;20104;-39
2023/12/01 02:55:35;;;;;;;4.18;3.30;;;;;;;16.18;46.67;100669.47;5027813;28;20057;-39
2023/12/01 02:58:02;;;;;;;5.05;4.13;;;;;;;16.20;46.42;100659.50;5029759;28;20082;-39
2023/12/01 03:00:29;;;;;;;6.20;3.65;;;;;;;16.21;46.38;100663.84;5030377;28;20041;-39
2023/12/01 03:02:55;;;;;;;4.10;3.55;;;;;;;16.25;46.65;100669.75;5031504;28;20084;-39
2023/12/01 03:05:22;;;;;;;4.93;3.70;;;;;;;16.28;46.49;100667.63;5030769;28;20135;-39
2023/12/01 03:07:49;;;;;;;4.43;3.58;;;;;;;16.37;45.76;100667.72;5027521;28;20569;-39
2023/12/01 03:10:16;;;;;;;4.45;3.53;;;;;;;16.43;46.39;100665.28;5027768;28;20061;-39
2023/12/01 03:12:44;;;;;;;4.97;3.45;;;;;;;16.48;46.45;100659.50;5031175;28;20193;-39
2023/12/01 03:15:12;;;;;;;5.55;3.83;;;;;;;16.54;45.75;100669.63;5032935;28;20053;-39
2023/12/01 03:17:39;;;;;;;6.13;3.72;;;;;;;16.55;46.00;100665.94;5027680;28;20046;-39
2023/12/01 03:20:09;;;;;;;5.20;3.83;;;;;;;16.57;45.76;100663.97;5028300;28;20046;-39
2023/12/01 03:22:41;;;;;;;5.82;3.40;;;;;;;16.53;45.61;100666.09;5029245;28;20045;-39
2023/12/01 03:25:11;;;;;;;4.43;3.47;;;;;;;16.52;46.00;100668.91;5031250;28;20094;-39
2023/12/01 03:27:40;;;;;;;4.88;3.17;;;;;;;16.48;46.39;100667.53;5031092;28;20049;-39
2023/12/01 03:30:18;;;;;;;5.03;3.40;;;;;;;16.45;46.50;100668.69;5030672;28;20290;-39
2023/12/01 03:32:50;;;;;;;4.22;3.25;;;;;;;16.44;45.94;100676.84;5028164;28;20050;-39
2023/12/01 03:35:20;;;;;;;4.47;3.65;;;;;;;16.43;46.38;100677.81;5027207;28;20148;-39
2023/12/01 03:37:49;;;;;;;4.65;3.22;;;;;;;16.39;46.44;100671.94;5029475;28;20057;-39
2023/12/01 03:40:16;;;;;;;4.07;2.75;;;;;;;16.36;46.56;100676.72;5029614;28;20434;-39
2023/12/01 03:42:45;;;;;;;4.68;3.45;;;;;;;16.33;46.66;100677.88;5027941;28;20049;-39
2023/12/01 03:45:12;;;;;;;5.07;3.90;;;;;;;16.30;47.02;100678.16;5027685;28;20049;-39
2023/12/01 03:47:40;;;;;;;4.40;3.25;;;;;;;16.28;46.89;100685.47;5029785;28;20084;-39
2023/12/01 03:50:14;;;;;;;4.80;3.65;;;;;;;16.27;45.95;100681.13;5028635;28;20140;-39
2023/12/01 03:52:45;;;;;;;4.10;3.35;;;;;;;16.23;46.38;100691.25;5028506;28;20045;-39
2023/12/01 03:55:13;;;;;;;3.95;3.13;;;;;;;16.23;46.12;100698.44;5025658;28;20547;-39
2023/12/01 03:57:41;;;;;;;4.55;3.17;;;;;;;16.21;46.40;100703.94;5028024;28;20054;-39
2023/12/01 04:00:13;;;;;;;4.75;3.67;;;;;;;16.19;46.03;100700.56;5030636;28;20049;-39
2023/12/01 04:02:43;;;;;;;4.87;3.67;;;;;;;16.18;46.39;100701.56;5024053;28;20060;-39
2023/12/01 04:05:18;;;;;;;5.22;3.40;;;;;;;16.15;46.68;100698.34;5028647;28;20488;-39
2023/12/01 04:07:52;;;;;;;4.72;3.55;;;;;;;16.13;46.58;100700.31;5025594;28;20049;-39
2023/12/01 04:10:22;;;;;;;;;;;;;;;16.04;46.56;100700.19;5028734;28;20132;-39
2023/12/01 04:12:49;;;;;;;5.25;3.83;;;;;;;16.04;46.76;100702.03;5026570;28;19967;-39
2023/12/01 04:15:18;;;;;;;4.63;3.30;;;;;;;15.97;46.42;100700.91;5025901;28;20053;-39
2023/12/01 04:17:47;;;;;;;4.32;3.22;;;;;;;15.93;46.78;100704.88;5028990;28;20132;-39
2023/12/01 04:20:21;;;;;;;4.45;3.55;;;;;;;15.95;47.12;100705.56;5028143;28;20038;-39
2023/12/01 04:22:50;;;;;;;4.82;3.45;;;;;;;15.99;47.44;100712.28;5029385;28;20045;-39
2023/12/01 04:25:16;;;;;;;4.25;3.00;;;;;;;16.03;47.09;100711.03;5032260;28;20080;-39
2023/12/01 04:27:47;;;;;;;5.30;3.92;;;;;;;16.08;47.46;100705.25;5028200;28;20060;-39
2023/12/01 04:30:15;;;;;;;4.65;3.65;;;;;;;16.15;46.60;100706.34;5028778;28;20061;-39
2023/12/01 04:32:44;;;;;;;4.15;3.22;;;;;;;16.22;46.39;100710.16;5027751;28;20100;-39
2023/12/01 04:35:12;;;;;;;5.13;3.50;;;;;;;16.28;46.65;100718.44;5027927;28;20049;-39
2023/12/01 04:37:42;;;;;;;3.72;3.05;;;;;;;16.35;47.04;100721.34;5028488;28;20110;-39
2023/12/01 04:40:14;;;;;;;4.97;3.38;;;;;;;16.41;47.16;100722.63;5028419;28;20081;-39
2023/12/01 04:42:47;;;;;;;5.50;3.70;;;;;;;16.42;46.23;100719.78;5028787;28;20055;-39
2023/12/01 04:45:16;;;;;;;4.65;3.40;;;;;;;16.44;46.45;100731.19;5025070;28;20455;-39
2023/12/01 04:47:43;;;;;;;5.15;3.65;;;;;;;16.43;46.56;100726.81;5021396;28;20394;-39
2023/12/01 04:50:13;;;;;;;3.72;2.80;;;;;;;16.42;46.78;100732.31;5026506;28;20322;-39
2023/12/01 04:52:50;;;;;;;4.25;3.13;;;;;;;16.40;46.81;100731.63;5030342;28;20978;-39
2023/12/01 04:55:18;;;;;;;4.68;3.20;;;;;;;16.39;46.25;100733.44;5028135;28;20049;-39
2023/12/01 04:57:46;;;;;;;4.85;3.55;;;;;;;16.38;46.83;100733.59;5026529;28;20147;-39
2023/12/01 05:00:20;;;;;;;4.28;3.20;;;;;;;16.35;47.24;100729.38;5012641;28;20141;-39
2023/12/01 05:02:53;;;;;;;;;;;;;;;16.33;46.23;100736.72;5027043;28;20064;-39
2023/12/01 05:05:25;;;;;;;5.10;3.60;;;;;;;16.35;46.88;100739.25;5029712;28;20362;-39
2023/12/01 05:07:56;;;;;;;5.72;3.80;;;;;;;16.32;46.41;100745.72;5027657;28;20080;-39
2023/12/01 05:10:27;;;;;;;4.28;3.60;;;;;;;16.29;47.10;100744.19;5026401;28;20132;-39
2023/12/01 05:12:56;;;;;;;7.00;4.15;;;;;;;16.27;46.94;100743.47;5023665;28;20136;-39
2023/12/01 05:15:24;;;;;;;6.78;3.63;;;;;;;16.26;46.85;100755.16;5025211;28;20257;-39
2023/12/01 05:17:54;;;;;;;4.53;3.70;;;;;;;16.24;46.49;100748.25;5028901;28;20128;-39
2023/12/01 05:20:24;;;;;;;5.57;4.13;;;;;;;16.22;46.56;100753.78;5026731;28;20104;-39
2023/12/01 05:22:52;;;;;;;5.18;3.72;;;;;;;16.20;46.94;100755.75;5042489;28;20441;-39
2023/12/01 05:25:21;;;;;;;5.80;4.00;;;;;;;16.18;46.50;100755.03;5026850;28;20053;-39
2023/12/01 05:27:59;;;;;;;5.15;3.45;;;;;;;16.14;47.04;100753.66;5027390;28;20049;-39
2023/12/01 05:30:28;;;;;;;5.07;4.00;;;;;;;16.13;47.38;100749.28;5022729;28;20464;-39
2023/12/01 05:32:55;;;;;;;6.72;4.18;;;;;;;16.09;46.66;100758.59;5026368;28;20375;-39
2023/12/01 05:35:22;;;;;;;4.43;3.35;;;;;;;16.06;46.68;100753.50;5027482;28;20057;-39
2023/12/01 05:37:51;;;;;;;4.93;3.55;;;;;;;16.02;46.51;100762.81;5026428;28;20111;-39
2023/12/01 05:40:29;;;;;;;6.20;4.25;;;;;;;15.96;47.66;100760.69;5028460;28;20428;-39
2023/12/01 05:42:57;;;;;;;4.93;3.88;;;;;;;15.88;47.93;100761.44;5026572;28;20088;-39
2023/12/01 05:45:29;;;;;;;4.95;3.78;;;;;;;15.85;47.75;100764.38;5026013;28;20061;-39
2023/12/01 05:47:56;;;;;;;5.63;4.07;;;;;;;15.88;47.38;100761.44;5026344;28;20108;-39
2023/12/01 05:50:29;;;;;;;5.85;4.00;;;;;;;15.92;47.08;100768.19;5026989;28;20059;-39
2023/12/01 05:53:00;;;;;;;6.45;4.75;;;;;;;15.94;47.15;100766.19;5028611;28;20084;-39
2023/12/01 05:55:29;;;;;;;5.78;3.60;;;;;;;16.00;47.97;100770.97;5026097;28;20061;-39
2023/12/01 05:58:04;;;;;;;5.45;4.05;;;;;;;16.02;46.92;100774.34;5027754;28;20431;-39
2023/12/01 06:00:31;;;;;;;5.47;3.90;;;;;;;16.09;47.55;100773.78;5023891;28;20037;-39
2023/12/01 06:03:09;;;;;;;5.78;3.83;;;;;;;16.12;47.40;100779.69;5026304;28;20049;-39
2023/12/01 06:05:37;;;;;;;4.60;3.42;;;;;;;16.18;46.49;100779.09;5027525;28;20049;-39
2023/12/01 06:08:04;;;;;;;5.15;3.88;;;;;;;16.20;47.61;100782.50;5024466;28;20050;-39
2023/12/01 06:10:32;;;;;;;6.68;4.70;;;;;;;16.23;47.67;100781.34;5026366;28;20045;-39
2023/12/01 06:12:59;;;;;;;5.50;3.92;;;;;;;16.25;46.77;100784.75;5024710;28;20129;-39
2023/12/01 06:15:29;;;;;;;6.15;4.18;;;;;;;16.26;47.28;100783.75;5028694;28;20049;-39
2023/12/01 06:17:58;;;;;;;4.10;3.38;;;;;;;16.26;47.23;100781.91;5024201;28;20460;-39
2023/12/01 06:20:25;;;;;;;5.70;4.30;;;;;;;16.26;47.18;100789.09;5024940;28;20053;-39
2023/12/01 06:22:57;;;;;;;5.35;3.85;;;;;;;16.26;47.45;100781.06;5027066;28;20396;-39
2023/12/01 06:25:28;;;;;;;5.95;4.35;;;;;;;16.25;47.30;100784.75;5028459;28;20107;-39
2023/12/01 06:27:57;;;;;;;5.68;4.32;;;;;;;16.25;46.75;100796.28;5026623;28;20045;-39
2023/12/01 06:30:25;;;;;;;6.28;3.97;;;;;;;16.25;46.63;100796.28;5026118;28;20081;-39
2023/12/01 06:32:52;;;;;;;5.97;4.20;;;;;;;16.25;46.79;100795.44;5022541;28;20053;-39
2023/12/01 06:35:21;;;;;;;5.45;3.63;;;;;;;16.25;47.59;100804.31;5024947;28;20058;-39
2023/12/01 06:37:48;;;;;;;6.45;4.50;;;;;;;16.25;46.48;100800.78;5026431;28;20042;-39
2023/12/01 06:40:17;;;;;;;5.65;4.22;;;;;;;16.25;46.65;100806.97;5027639;28;20220;-39
2023/12/01 06:42:49;;;;;;;6.07;4.38;;;;;;;16.26;46.37;100803.31;5026444;28;20103;-39
2023/12/01 06:45:18;;;;;;;4.82;3.58;;;;;;;16.26;46.77;100800.63;5026637;28;20448;-39
2023/12/01 06:47:48;;;;;;;5.72;4.22;;;;;;;16.33;46.34;100808.09;5025557;28;20162;-39
2023/12/01 06:50:16;;;;;;;4.63;3.78;;;;;;;16.40;47.16;100806.50;5026417;28;20346;-39
2023/12/01 06:52:45;;;;;;;5.63;3.85;;;;;;;16.46;46.13;100806.78;5023658;28;20057;-39
2023/12/01 06:55:12;;;;;;;5.97;4.40;;;;;;;16.54;46.76;100809.59;5025896;28;20379;-38
2023/12/01 06:57:41;;;;;;;5.35;4.20;;;;;;;16.62;46.74;100811.53;5027363;28;20049;-38
2023/12/01 07:00:21;;;;;;;5.05;3.60;;;;;;;16.70;46.91;100816.16;5030081;28;20561;-38
2023/12/01 07:02:48;;;;;;;4.53;3.65;;;;;;;16.78;46.33;100817.16;5026015;28;20057;-39
2023/12/01 07:05:19;;;;;;;5.18;3.65;;;;;;;16.87;46.51;100819.94;5022908;28;20409;-39
2023/12/01 07:07:47;;;;;;;5.47;3.85;;;;;;;16.94;45.85;100813.00;5022248;28;20041;-38
2023/12/01 07:10:15;;;;;;;4.45;3.45;;;;;;;17.03;46.52;100826.34;5027237;28;20131;-38
2023/12/01 07:12:41;;;;;;;5.10;3.72;;;;;;;17.11;46.09;100820.25;5024697;28;20060;-38
2023/12/01 07:15:11;;;;;;;5.57;3.72;;;;;;;17.20;45.70;100819.34;5023418;28;20076;-38
2023/12/01 07:17:38;;;;;;;5.25;3.85;;;;;;;17.26;45.63;100826.81;5023341;28;20045;-38
2023/12/01 07:20:13;;;;;;;4.82;3.50;;;;;;;17.35;45.80;100826.91;5024827;28;20555;-38
2023/12/01 07:22:42;;;;;;;5.32;3.65;;;;;;;17.42;45.16;100825.31;5026649;28;20049;-37
2023/12/01 07:25:22;;;;;;;4.05;3.25;;;;;;;17.48;45.60;100833.59;5024914;28;20449;-38
2023/12/01 07:27:52;;;;;;;5.78;4.13;;;;;;;17.56;45.86;100829.31;5023788;28;20064;-38
2023/12/01 07:30:19;;;;;;;4.05;3.15;;;;;;;17.62;45.71;100834.94;5021747;28;20056;-38
2023/12/01 07:32:47;;;;;;;4.95;3.53;;;;;;;17.68;45.52;100839.66;5024697;28;20097;-38
2023/12/01 07:35:14;;;;;;;5.60;4.22;;;;;;;17.71;45.28;100850.09;5026110;28;20462;-38
2023/12/01 07:37:45;;;;;;;4.70;3.45;;;;;;;17.79;45.29;100851.22;5027235;28;20069;-38
2023/12/01 07:40:19;;;;;;;5.65;3.92;;;;;;;17.82;45.15;100845.56;5027481;28;20418;-38
2023/12/01 07:42:48;;;;;;;6.70;4.10;;;;;;;17.86;44.99;100844.25;5028468;28;20381;-38
2023/12/01 07:45:17;;;;;;;5.53;3.90;;;;;;;17.90;45.26;100861.72;5025568;28;20049;-38
2023/12/01 07:47:45;;;;;;;5.72;4.18;;;;;;;17.94;44.89;100855.06;5026834;28;20100;-38
2023/12/01 07:50:14;;;;;;;4.70;3.63;;;;;;;17.98;44.95;100862.66;5028442;28;20327;-38
2023/12/01 07:52:42;;;;;;;7.47;4.38;;;;;;;18.00;45.32;100859.78;5026842;28;20065;-38
2023/12/01 07:55:09;;;;;;;5.90;4.03;;;;;;;18.03;45.14;100859.50;5029782;28;20464;-38
2023/12/01 07:57:37;;;;;;;5.90;4.03;;;;;;;18.05;44.86;100870.94;5028099;28;20045;-38
2023/12/01 08:00:05;;;;;;;5.63;3.78;;;;;;;18.02;44.71;100873.91;5027118;28;20053;-38
2023/12/01 08:02:32;;;;;;;5.78;4.00;;;;;;;17.99;45.00;100871.53;5028587;28;20092;-38
2023/12/01 08:04:59;;;;;;;5.63;4.13;;;;;;;17.93;45.01;100870.31;5031364;28;20531;-38
2023/12/01 08:07:26;;;;;;;7.15;4.55;;;;;;;17.87;44.94;100875.44;5030243;28;20050;-38
2023/12/01 08:09:53;;;;;;;8.13;4.47;;;;;;;17.79;45.16;100878.03;5027831;28;20368;-38
2023/12/01 08:12:24;;;;;;;6.50;4.32;;;;;;;17.70;44.93;100877.91;5025852;28;20077;-38
2023/12/01 08:14:51;;;;;;;9.70;4.22;;;;;;;17.62;45.16;100875.13;5027835;28;20341;-38
2023/12/01 08:17:18;;;;;;;6.82;4.30;;;;;;;17.52;45.72;100880.53;5027032;28;20081;-38
2023/12/01 08:19:44;;;;;;;5.18;3.80;;;;;;;17.43;45.91;100881.44;5028246;28;20326;-38
2023/12/01 08:22:11;;;;;;;8.70;4.72;;;;;;;17.36;46.00;100880.34;5029335;28;20048;-38
2023/12/01 08:24:38;;;;;;;6.50;4.63;;;;;;;17.30;45.43;100872.91;5026674;28;20053;-38
2023/12/01 08:27:07;;;;;;;5.93;4.10;;;;;;;17.23;46.11;100882.50;5026549;28;20045;-38
2023/12/01 08:29:35;;;;;;;7.25;4.57;;;;;;;17.18;45.54;100882.97;5024805;28;20049;-38
2023/12/01 08:32:03;;;;;;;7.53;4.70;;;;;;;17.13;45.81;100877.22;5027923;28;20055;-39
2023/12/01 08:34:30;;;;;;;6.55;5.00;;;;;;;17.09;46.17;100880.34;5025443;28;20445;-39
2023/12/01 08:36:57;;;;;;;7.55;4.72;;;;;;;17.06;46.34;100877.94;5029629;28;20330;-38
2023/12/01 08:39:23;;;;;;;7.68;4.90;;;;;;;17.02;46.40;100890.78;5025099;28;20049;-39
2023/12/01 08:41:53;;;;;;;8.18;5.00;;;;;;;16.97;46.04;100893.88;5027251;28;20090;-38
2023/12/01 08:44:20;;;;;;;7.72;4.68;;;;;;;16.95;46.50;100892.34;5025502;28;20485;-39
2023/12/01 08:46:46;;;;;;;6.60;5.18;;;;;;;16.92;45.89;100895.31;5020485;28;20053;-38
2023/12/01 08:49:13;;;;;;;6.63;5.03;;;;;;;16.89;46.35;100898.28;5026139;28;20045;-38
2023/12/01 08:51:41;;;;;;;8.90;5.32;;;;;;;16.86;46.58;100895.91;5023368;28;20357;-39
2023/12/01 08:54:08;;;;;;;8.45;5.63;;;;;;;16.84;46.67;100889.81;5022583;28;20179;-38
2023/12/01 08:56:34;;;;;;;9.55;5.70;;;;;;;16.81;46.23;100893.66;5022883;28;20050;-38
2023/12/01 08:59:01;;;;;;;8.15;5.45;;;;;;;16.78;46.26;100897.44;5026644;28;20429;-38
2023/12/01 09:01:28;;;;;;;8.02;5.82;;;;;;;16.77;46.41;100894.94;5024603;28;20132;-39
2023/12/01 09:03:54;;;;;;;9.30;6.28;;;;;;;16.76;46.44;100895.91;5028405;28;20045;-38
2023/12/01 09:06:21;;;;;;;9.85;6.38;;;;;;;16.75;46.86;100902.25;5028601;28;20072;-38
2023/12/01 09:08:48;;;;;;;10.63;6.45;;;;;;;16.73;46.36;100899.72;5024569;28;20061;-38
2023/12/01 09:11:15;;;;;;;10.32;6.85;;;;;;;16.72;46.77;100900.69;5025982;28;20352;-39
2023/12/01 09:13:41;;;;;;;8.73;5.90;;;;;;;16.74;47.13;100906.75;5024100;28;20448;-38
2023/12/01 09:16:08;;;;;;;13.63;7.28;;;;;;;16.77;46.30;100911.00;5027671;28;20057;-38
2023/12/01 09:18:35;;;;;;;9.32;6.40;;;;;;;16.83;46.76;100917.59;5024316;28;20699;-38
2023/12/01 09:21:02;;;;;;;9.15;6.90;;;;;;;16.89;46.54;100920.53;5026253;28;20060;-39
2023/12/01 09:23:29;;;;;;;10.07;6.45;;;;;;;16.94;46.38;100923.63;5022541;28;20053;-38
2023/12/01 09:25:55;;;;;;;10.52;6.88;;;;;;;17.00;46.95;100919.50;5026971;28;20119;-39
2023/12/01 09:28:23;;;;;;;12.55;7.90;;;;;;;17.06;46.58;100924.31;5028345;28;20058;-38
2023/12/01 09:30:51;;;;;;;10.32;6.90;;;;;;;17.11;46.53;100922.03;5026487;28;20042;-38
2023/12/01 09:33:18;;;;;;;10.40;6.80;;;;;;;17.13;46.41;100927.25;5024632;28;20049;-38
2023/12/01 09:35:44;;;;;;;10.35;6.70;;;;;;;17.15;46.30;100930.63;5026209;28;20131;-38
2023/12/01 09:38:24;;;;;;;9.48;6.90;;;;;;;17.17;46.34;100932.16;5024467;28;20060;-38
2023/12/01 09:40:51;;;;;;;12.77;7.40;;;;;;;17.18;47.24;100933.84;5027442;28;20353;-38
2023/12/01 09:43:19;;;;;;;9.55;6.97;;;;;;;17.19;46.67;100938.22;5027726;28;20441;-38
2023/12/01 09:45:46;;;;;;;9.95;6.90;;;;;;;17.19;46.98;100930.16;5026318;28;20046;-37
2023/12/01 09:48:18;;;;;;;11.90;7.60;;;;;;;17.21;46.48;100936.25;5021163;28;20054;-38
2023/12/01 09:50:46;;;;;;;11.27;7.88;;;;;;;17.23;47.24;100936.09;5023809;28;20045;-38
2023/12/01 09:53:16;;;;;;;12.80;8.00;;;;;;;17.26;46.58;100938.47;5025315;28;20128;-38
2023/12/01 09:55:43;;;;;;;13.82;9.07;;;;;;;17.29;47.10;100940.88;5028150;28;20103;-38
2023/12/01 09:58:10;;;;;;;16.27;10.25;;;;;;;17.33;46.60;100947.63;5024779;28;20284;-37
2023/12/01 10:00:37;;;;;;;17.50;10.93;;;;;;;17.36;46.71;100941.13;5026151;28;20060;-37
2023/12/01 10:03:04;;;;;;;18.58;11.30;;;;;;;17.40;46.56;100942.50;5025762;28;20099;-38
2023/12/01 10:05:33;;;;;;;19.85;12.43;;;;;;;17.41;46.41;100946.91;5026024;28;20379;-38
2023/12/01 10:08:00;;;;;;;20.70;12.90;;;;;;;17.45;46.67;100945.63;5026512;28;20426;-38
2023/12/01 10:10:28;;;;;;;20.95;13.25;;;;;;;17.47;46.57;100938.25;5027316;28;20061;-38
2023/12/01 10:12:59;;;;;;;25.60;14.32;;;;;;;17.49;47.00;100941.66;5026914;28;20063;-38
2023/12/01 10:15:27;;;;;;;44.03;24.17;;;;;;;17.53;46.95;100943.03;5027975;28;20433;-38
2023/12/01 10:18:06;;;;;;;43.58;24.85;;;;;;;17.55;48.18;100935.69;5020582;28;20045;-37
2023/12/01 10:20:33;;;;;;;42.58;25.35;;;;;;;17.57;47.71;100936.38;5023517;28;21002;-38
2023/12/01 10:22:59;;;;;;;41.72;24.23;;;;;;;17.60;47.66;100945.94;5026242;28;20095;-38
2023/12/01 10:25:27;;;;;;;48.53;25.23;;;;;;;17.61;48.01;100940.47;5025429;28;20057;-37
2023/12/01 10:27:57;;;;;;;45.05;24.08;;;;;;;17.63;48.22;100938.47;5026833;28;20053;-37
2023/12/01 10:30:24;;;;;;;41.53;24.30;;;;;;;17.65;48.26;100939.16;5025072;28;20135;-38
2023/12/01 10:32:52;;;;;;;44.60;24.88;;;;;;;17.67;48.00;100942.53;5024761;28;20429;-37
2023/12/01 10:35:19;;;;;;;42.90;24.77;;;;;;;17.67;47.95;100939.84;5024421;28;20504;-38
2023/12/01 10:37:47;;;;;;;44.72;25.27;;;;;;;17.69;48.25;100940.56;5027309;28;20053;-38
2023/12/01 10:40:16;;;;;;;48.67;29.35;;;;;;;17.70;48.20;100939.56;5027966;28;20077;-37
2023/12/01 10:42:45;;;;;;;44.25;26.13;;;;;;;17.71;48.11;100940.41;5027941;28;20107;-37
2023/12/01 10:45:14;;;;;;;52.88;29.58;;;;;;;17.72;48.38;100940.22;5027003;28;20046;-37
2023/12/01 10:47:44;;;;;;;50.38;27.92;;;;;;;17.73;48.32;100941.09;5022473;28;20542;-38
2023/12/01 10:50:12;;;;;;;50.05;28.95;;;;;;;17.73;48.42;100941.94;5023377;28;20056;-38
2023/12/01 10:52:41;;;;;;;51.70;29.40;;;;;;;17.75;48.16;100931.09;5025593;28;20049;-37
2023/12/01 10:55:08;;;;;;;53.28;30.95;;;;;;;17.75;48.23;100933.78;5029260;28;20061;-37
2023/12/01 10:57:39;;;;;;;47.90;27.58;;;;;;;17.75;48.36;100945.34;5024759;28;20414;-37
2023/12/01 11:00:19;;;;;;;46.95;29.13;;;;;;;17.75;48.15;100937.28;5023631;28;20041;-37
2023/12/01 11:02:49;;;;;;;50.97;29.13;;;;;;;17.76;47.98;100938.97;5023253;28;20421;-37
2023/12/01 11:05:18;;;;;;;50.65;28.88;;;;;;;17.77;48.19;100931.81;5026150;28;20057;-37
2023/12/01 11:08:14;;;;;;;49.13;28.60;;;;;;;17.78;48.29;100938.00;5027375;28;20457;-37
2023/12/01 11:10:58;;;;;;;55.22;29.55;;;;;;;17.79;48.75;100931.66;5025417;28;20065;-37
2023/12/01 11:13:47;;;;;;;48.90;27.98;;;;;;;17.79;48.58;100932.47;5024685;28;20077;-38
2023/12/01 11:16:15;;;;;;;48.58;27.63;;;;;;;17.81;48.61;100938.56;5028091;28;20049;-37
2023/12/01 11:18:46;;;;;;;44.20;26.35;;;;;;;17.81;48.45;100943.03;5028963;28;20057;-37
2023/12/01 11:21:16;;;;;;;43.67;25.70;;;;;;;17.81;47.52;100940.38;5029498;28;20077;-38
2023/12/01 11:23:43;;;;;;;46.55;27.10;;;;;;;17.80;47.37;100944.03;5026599;28;20045;-37
2023/12/01 11:26:11;;;;;;;42.75;25.77;;;;;;;17.79;47.74;100948.56;5028982;28;20260;-37
2023/12/01 11:31:09;;;;;;;38.67;24.05;;;;;;;17.75;47.65;100941.81;5033125;28;20049;-37
2023/12/01 11:33:46;;;;;;;41.33;24.95;;;;;;;17.74;47.80;100948.16;5028329;28;20402;-37